sensor_id;sensor_type;location;lat;lon;timestamp;pressure;altitude;pressure_sealevel;temperature;humidity
64614;BME280;51025;37.772;-122.432;2022-07-23T00:01:56;100827.42;;;19.88;31.56
64614;BME280;51025;37.772;-122.432;2022-07-23T00:04:25;100833.54;;;19.85;31.56
64614;BME280;51025;37.772;-122.432;2022-07-23T00:06:54;100828.88;;;20.15;31.68
64614;BME280;51025;37.772;-122.432;2022-07-23T00:09:22;100822.69;;;19.89;31.53
64614;BME280;51025;37.772;-122.432;2022-07-23T00:11:50;100828.08;;;19.79;31.60
64614;BME280;51025;37.772;-122.432;2022-07-23T00:14:19;100822.48;;;19.90;31.46
64614;BME280;51025;37.772;-122.432;2022-07-23T00:16:47;100816.25;;;19.80;31.61
64614;BME280;51025;37.772;-122.432;2022-07-23T00:19:15;100818.25;;;19.90;31.48
64614;BME280;51025;37.772;-122.432;2022-07-23T00:21:44;100823.77;;;20.27;31.48
64614;BME280;51025;37.772;-122.432;2022-07-23T00:24:13;100812.14;;;19.64;31.71
64614;BME280;51025;37.772;-122.432;2022-07-23T00:26:42;100810.43;;;19.78;31.57
64614;BME280;51025;37.772;-122.432;2022-07-23T00:29:10;100806.84;;;19.89;31.43
64614;BME280;51025;37.772;-122.432;2022-07-23T00:31:39;100807.28;;;19.89;31.49
64614;BME280;51025;37.772;-122.432;2022-07-23T00:34:07;100808.83;;;19.90;31.49
64614;BME280;51025;37.772;-122.432;2022-07-23T00:36:36;100803.74;;;19.93;31.41
64614;BME280;51025;37.772;-122.432;2022-07-23T00:39:04;100801.70;;;19.74;31.60
64614;BME280;51025;37.772;-122.432;2022-07-23T00:41:33;100800.95;;;19.74;31.58
64614;BME280;51025;37.772;-122.432;2022-07-23T00:44:16;100797.32;;;19.87;31.47
64614;BME280;51025;37.772;-122.432;2022-07-23T00:46:47;100798.18;;;19.84;31.48
64614;BME280;51025;37.772;-122.432;2022-07-23T00:49:16;100794.19;;;19.79;31.46
64614;BME280;51025;37.772;-122.432;2022-07-23T00:51:45;100795.72;;;19.70;31.57
64614;BME280;51025;37.772;-122.432;2022-07-23T00:54:13;100805.05;;;19.83;31.47
64614;BME280;51025;37.772;-122.432;2022-07-23T00:56:43;100799.29;;;19.86;31.51
64614;BME280;51025;37.772;-122.432;2022-07-23T00:59:12;100794.81;;;19.76;31.54
64614;BME280;51025;37.772;-122.432;2022-07-23T01:01:41;100793.94;;;19.81;31.50
64614;BME280;51025;37.772;-122.432;2022-07-23T01:04:10;100795.67;;;20.21;31.52
64614;BME280;51025;37.772;-122.432;2022-07-23T01:06:39;100792.43;;;19.82;31.52
64614;BME280;51025;37.772;-122.432;2022-07-23T01:09:08;100794.76;;;19.97;31.35
64614;BME280;51025;37.772;-122.432;2022-07-23T01:11:37;100785.20;;;19.76;31.23
64614;BME280;51025;37.772;-122.432;2022-07-23T01:14:11;100785.38;;;19.98;31.30
64614;BME280;51025;37.772;-122.432;2022-07-23T01:16:40;100787.99;;;19.86;31.41
64614;BME280;51025;37.772;-122.432;2022-07-23T01:19:08;100787.33;;;19.87;31.43
64614;BME280;51025;37.772;-122.432;2022-07-23T01:21:39;100782.62;;;19.93;31.36
64614;BME280;51025;37.772;-122.432;2022-07-23T01:24:09;100772.98;;;19.99;31.33
64614;BME280;51025;37.772;-122.432;2022-07-23T01:26:41;100768.27;;;20.00;31.28
64614;BME280;51025;37.772;-122.432;2022-07-23T01:29:10;100771.52;;;19.83;31.41
64614;BME280;51025;37.772;-122.432;2022-07-23T01:31:39;100773.99;;;19.89;31.39
64614;BME280;51025;37.772;-122.432;2022-07-23T01:34:08;100759.70;;;19.96;31.35
64614;BME280;51025;37.772;-122.432;2022-07-23T01:36:38;100767.76;;;19.94;31.35
64614;BME280;51025;37.772;-122.432;2022-07-23T01:39:07;100754.65;;;20.04;31.25
64614;BME280;51025;37.772;-122.432;2022-07-23T01:41:36;100758.20;;;19.90;31.39
64614;BME280;51025;37.772;-122.432;2022-07-23T01:44:04;100755.14;;;20.01;31.27
64614;BME280;51025;37.772;-122.432;2022-07-23T01:46:32;100759.32;;;19.31;31.22
64614;BME280;51025;37.772;-122.432;2022-07-23T01:49:01;100758.52;;;20.29;30.98
64614;BME280;51025;37.772;-122.432;2022-07-23T01:51:30;100760.32;;;19.70;31.18
64614;BME280;51025;37.772;-122.432;2022-07-23T01:53:59;100759.42;;;20.12;31.11
64614;BME280;51025;37.772;-122.432;2022-07-23T01:56:28;100759.00;;;20.11;31.12
64614;BME280;51025;37.772;-122.432;2022-07-23T01:58:56;100763.77;;;20.42;30.84
64614;BME280;51025;37.772;-122.432;2022-07-23T02:01:24;100764.48;;;20.02;31.15
64614;BME280;51025;37.772;-122.432;2022-07-23T02:03:53;100768.34;;;20.13;31.06
64614;BME280;51025;37.772;-122.432;2022-07-23T02:06:21;100765.31;;;20.63;30.96
64614;BME280;51025;37.772;-122.432;2022-07-23T02:08:50;100767.91;;;20.08;31.07
64614;BME280;51025;37.772;-122.432;2022-07-23T02:11:18;100770.06;;;20.06;31.08
64614;BME280;51025;37.772;-122.432;2022-07-23T02:13:46;100766.83;;;19.94;31.18
64614;BME280;51025;37.772;-122.432;2022-07-23T02:16:14;100760.71;;;20.02;31.08
64614;BME280;51025;37.772;-122.432;2022-07-23T02:18:43;100759.05;;;20.06;31.05
64614;BME280;51025;37.772;-122.432;2022-07-23T02:21:12;100759.58;;;19.80;31.26
64614;BME280;51025;37.772;-122.432;2022-07-23T02:23:40;100760.80;;;19.78;31.24
64614;BME280;51025;37.772;-122.432;2022-07-23T02:26:09;100760.13;;;19.80;31.24
64614;BME280;51025;37.772;-122.432;2022-07-23T02:28:38;100768.58;;;19.71;31.32
64614;BME280;51025;37.772;-122.432;2022-07-23T02:31:06;100772.95;;;19.79;31.26
64614;BME280;51025;37.772;-122.432;2022-07-23T02:33:36;100771.13;;;19.72;31.28
64614;BME280;51025;37.772;-122.432;2022-07-23T02:36:04;100780.52;;;19.54;31.45
64614;BME280;51025;37.772;-122.432;2022-07-23T02:38:33;100774.33;;;19.61;31.41
64614;BME280;51025;37.772;-122.432;2022-07-23T02:41:02;100771.48;;;19.97;31.00
64614;BME280;51025;37.772;-122.432;2022-07-23T02:43:30;100772.47;;;18.81;31.38
64614;BME280;51025;37.772;-122.432;2022-07-23T02:45:59;100772.58;;;20.02;31.31
64614;BME280;51025;37.772;-122.432;2022-07-23T02:48:27;100774.11;;;19.91;31.43
64614;BME280;51025;37.772;-122.432;2022-07-23T02:50:55;100770.44;;;19.50;31.38
64614;BME280;51025;37.772;-122.432;2022-07-23T02:53:24;100771.76;;;19.45;31.46
64614;BME280;51025;37.772;-122.432;2022-07-23T02:55:53;100770.53;;;19.35;31.50
64614;BME280;51025;37.772;-122.432;2022-07-23T02:58:22;100770.11;;;19.41;31.49
64614;BME280;51025;37.772;-122.432;2022-07-23T03:00:51;100774.96;;;19.77;31.51
64614;BME280;51025;37.772;-122.432;2022-07-23T03:03:19;100779.87;;;19.31;31.55
64614;BME280;51025;37.772;-122.432;2022-07-23T03:05:47;100785.84;;;19.68;31.59
64614;BME280;51025;37.772;-122.432;2022-07-23T03:08:16;100785.45;;;20.11;31.49
64614;BME280;51025;37.772;-122.432;2022-07-23T03:10:45;100784.48;;;19.71;31.54
64614;BME280;51025;37.772;-122.432;2022-07-23T03:13:13;100782.63;;;19.58;31.62
64614;BME280;51025;37.772;-122.432;2022-07-23T03:15:41;100781.26;;;19.16;31.60
64614;BME280;51025;37.772;-122.432;2022-07-23T03:18:09;100777.73;;;20.02;31.57
64614;BME280;51025;37.772;-122.432;2022-07-23T03:20:38;100766.70;;;19.13;31.63
64614;BME280;51025;37.772;-122.432;2022-07-23T03:23:06;100760.65;;;19.58;31.65
64614;BME280;51025;37.772;-122.432;2022-07-23T03:25:34;100765.48;;;19.15;31.57
64614;BME280;51025;37.772;-122.432;2022-07-23T03:28:03;100770.67;;;19.44;31.68
64614;BME280;51025;37.772;-122.432;2022-07-23T03:30:32;100769.74;;;18.99;31.73
64614;BME280;51025;37.772;-122.432;2022-07-23T03:33:00;100771.90;;;19.76;31.69
64614;BME280;51025;37.772;-122.432;2022-07-23T03:35:29;100772.27;;;18.92;31.75
64614;BME280;51025;37.772;-122.432;2022-07-23T03:37:57;100777.58;;;19.27;31.91
64614;BME280;51025;37.772;-122.432;2022-07-23T03:40:27;100779.10;;;19.76;31.75
64614;BME280;51025;37.772;-122.432;2022-07-23T03:42:55;100778.10;;;19.18;31.98
64614;BME280;51025;37.772;-122.432;2022-07-23T03:45:24;100771.05;;;19.47;32.07
64614;BME280;51025;37.772;-122.432;2022-07-23T03:47:52;100768.35;;;18.77;32.00
64614;BME280;51025;37.772;-122.432;2022-07-23T03:50:21;100762.74;;;19.16;32.00
64614;BME280;51025;37.772;-122.432;2022-07-23T03:52:49;100757.51;;;19.19;31.95
64614;BME280;51025;37.772;-122.432;2022-07-23T03:55:17;100760.00;;;19.19;31.98
64614;BME280;51025;37.772;-122.432;2022-07-23T03:57:46;100758.66;;;19.04;32.02
64614;BME280;51025;37.772;-122.432;2022-07-23T04:00:15;100756.20;;;19.21;32.16
64614;BME280;51025;37.772;-122.432;2022-07-23T04:02:44;100767.60;;;19.24;32.18
64614;BME280;51025;37.772;-122.432;2022-07-23T04:05:13;100768.75;;;19.22;32.21
64614;BME280;51025;37.772;-122.432;2022-07-23T04:07:42;100767.27;;;18.68;31.95
64614;BME280;51025;37.772;-122.432;2022-07-23T04:10:11;100770.94;;;18.84;32.16
64614;BME280;51025;37.772;-122.432;2022-07-23T04:12:39;100777.13;;;19.15;32.26
64614;BME280;51025;37.772;-122.432;2022-07-23T04:15:09;100787.68;;;19.19;32.18
64614;BME280;51025;37.772;-122.432;2022-07-23T04:17:37;100792.73;;;18.87;32.15
64614;BME280;51025;37.772;-122.432;2022-07-23T04:20:07;100793.54;;;19.21;32.16
64614;BME280;51025;37.772;-122.432;2022-07-23T04:22:35;100792.49;;;18.83;32.18
64614;BME280;51025;37.772;-122.432;2022-07-23T04:25:03;100792.26;;;19.21;32.18
64614;BME280;51025;37.772;-122.432;2022-07-23T04:27:32;100790.81;;;18.91;32.11
64614;BME280;51025;37.772;-122.432;2022-07-23T04:30:00;100795.90;;;19.17;32.19
64614;BME280;51025;37.772;-122.432;2022-07-23T04:32:29;100794.77;;;18.46;32.20
64614;BME280;51025;37.772;-122.432;2022-07-23T04:34:58;100796.33;;;19.33;32.15
64614;BME280;51025;37.772;-122.432;2022-07-23T04:37:27;100793.65;;;19.42;32.07
64614;BME280;51025;37.772;-122.432;2022-07-23T04:39:55;100792.00;;;19.49;32.03
64614;BME280;51025;37.772;-122.432;2022-07-23T04:42:24;100792.09;;;19.49;32.03
64614;BME280;51025;37.772;-122.432;2022-07-23T04:44:52;100785.59;;;19.14;32.04
64614;BME280;51025;37.772;-122.432;2022-07-23T04:47:21;100779.88;;;19.38;32.14
64614;BME280;51025;37.772;-122.432;2022-07-23T04:49:49;100785.05;;;19.53;32.00
64614;BME280;51025;37.772;-122.432;2022-07-23T04:52:17;100782.91;;;19.40;32.14
64614;BME280;51025;37.772;-122.432;2022-07-23T04:54:46;100783.97;;;19.43;32.12
64614;BME280;51025;37.772;-122.432;2022-07-23T04:57:15;100777.79;;;19.37;32.17
64614;BME280;51025;37.772;-122.432;2022-07-23T04:59:43;100778.79;;;19.17;32.02
64614;BME280;51025;37.772;-122.432;2022-07-23T05:02:11;100781.62;;;19.40;32.16
64614;BME280;51025;37.772;-122.432;2022-07-23T05:04:40;100789.38;;;18.66;32.12
64614;BME280;51025;37.772;-122.432;2022-07-23T05:07:09;100794.98;;;19.51;32.05
64614;BME280;51025;37.772;-122.432;2022-07-23T05:09:37;100798.49;;;19.61;31.95
64614;BME280;51025;37.772;-122.432;2022-07-23T05:12:06;100796.88;;;19.53;32.03
64614;BME280;51025;37.772;-122.432;2022-07-23T05:14:35;100800.11;;;18.76;32.05
64614;BME280;51025;37.772;-122.432;2022-07-23T05:17:03;100798.16;;;19.54;32.03
64614;BME280;51025;37.772;-122.432;2022-07-23T05:19:31;100801.99;;;18.89;31.93
64614;BME280;51025;37.772;-122.432;2022-07-23T05:21:59;100794.28;;;19.36;31.88
64614;BME280;51025;37.772;-122.432;2022-07-23T05:24:28;100794.85;;;18.82;32.00
64614;BME280;51025;37.772;-122.432;2022-07-23T05:26:57;100791.46;;;19.70;31.89
64614;BME280;51025;37.772;-122.432;2022-07-23T05:29:25;100792.47;;;19.49;32.10
64614;BME280;51025;37.772;-122.432;2022-07-23T05:31:54;100791.61;;;19.62;31.97
64614;BME280;51025;37.772;-122.432;2022-07-23T05:34:22;100794.38;;;19.45;32.17
64614;BME280;51025;37.772;-122.432;2022-07-23T05:36:51;100790.26;;;19.51;32.12
64614;BME280;51025;37.772;-122.432;2022-07-23T05:39:19;100789.72;;;19.38;32.24
64614;BME280;51025;37.772;-122.432;2022-07-23T05:41:47;100785.78;;;19.86;32.09
64614;BME280;51025;37.772;-122.432;2022-07-23T05:44:16;100788.47;;;19.51;32.11
64614;BME280;51025;37.772;-122.432;2022-07-23T05:46:44;100783.71;;;19.19;32.06
64614;BME280;51025;37.772;-122.432;2022-07-23T05:49:12;100773.55;;;19.50;32.08
64614;BME280;51025;37.772;-122.432;2022-07-23T05:51:40;100770.06;;;19.19;32.07
64614;BME280;51025;37.772;-122.432;2022-07-23T05:54:09;100773.04;;;19.51;32.08
64614;BME280;51025;37.772;-122.432;2022-07-23T05:56:38;100768.38;;;19.25;31.99
64614;BME280;51025;37.772;-122.432;2022-07-23T05:59:06;100765.03;;;19.22;32.03
64614;BME280;51025;37.772;-122.432;2022-07-23T06:01:35;100757.83;;;19.13;32.06
64614;BME280;51025;37.772;-122.432;2022-07-23T06:04:03;100753.46;;;19.55;31.99
64614;BME280;51025;37.772;-122.432;2022-07-23T06:06:32;100759.60;;;18.76;32.05
64614;BME280;51025;37.772;-122.432;2022-07-23T06:09:01;100756.87;;;19.52;32.21
64614;BME280;51025;37.772;-122.432;2022-07-23T06:11:30;100751.91;;;18.68;32.28
64614;BME280;51025;37.772;-122.432;2022-07-23T06:13:59;100760.61;;;19.27;32.44
64614;BME280;51025;37.772;-122.432;2022-07-23T06:16:27;100763.27;;;18.96;32.42
64614;BME280;51025;37.772;-122.432;2022-07-23T06:18:56;100769.06;;;19.38;32.39
64614;BME280;51025;37.772;-122.432;2022-07-23T06:21:24;100771.42;;;19.25;32.47
64614;BME280;51025;37.772;-122.432;2022-07-23T06:23:53;100772.54;;;19.36;32.37
64614;BME280;51025;37.772;-122.432;2022-07-23T06:26:21;100775.69;;;19.55;32.49
64614;BME280;51025;37.772;-122.432;2022-07-23T06:28:49;100774.08;;;18.91;32.42
64614;BME280;51025;37.772;-122.432;2022-07-23T06:31:17;100769.27;;;19.63;32.43
64614;BME280;51025;37.772;-122.432;2022-07-23T06:33:46;100775.74;;;19.17;32.48
64614;BME280;51025;37.772;-122.432;2022-07-23T06:36:15;100768.32;;;19.19;32.12
64614;BME280;51025;37.772;-122.432;2022-07-23T06:38:43;100774.40;;;19.31;32.31
64614;BME280;51025;37.772;-122.432;2022-07-23T06:41:12;100778.34;;;19.15;32.44
64614;BME280;51025;37.772;-122.432;2022-07-23T06:43:41;100782.84;;;19.27;32.30
64614;BME280;51025;37.772;-122.432;2022-07-23T06:46:10;100782.53;;;19.34;32.22
64614;BME280;51025;37.772;-122.432;2022-07-23T06:48:38;100778.81;;;18.90;32.30
64614;BME280;51025;37.772;-122.432;2022-07-23T06:51:07;100779.31;;;19.19;32.35
64614;BME280;51025;37.772;-122.432;2022-07-23T06:53:36;100779.48;;;19.27;32.26
64614;BME280;51025;37.772;-122.432;2022-07-23T06:56:05;100794.21;;;19.17;32.35
64614;BME280;51025;37.772;-122.432;2022-07-23T06:58:34;100791.39;;;18.47;32.27
64614;BME280;51025;37.772;-122.432;2022-07-23T07:01:02;100788.91;;;18.55;32.20
64614;BME280;51025;37.772;-122.432;2022-07-23T07:03:31;100782.47;;;19.09;32.05
64614;BME280;51025;37.772;-122.432;2022-07-23T07:06:00;100786.65;;;19.31;32.16
64614;BME280;51025;37.772;-122.432;2022-07-23T07:08:28;100792.68;;;18.64;32.10
64614;BME280;51025;37.772;-122.432;2022-07-23T07:10:57;100790.15;;;19.16;32.29
64614;BME280;51025;37.772;-122.432;2022-07-23T07:13:26;100795.36;;;19.42;32.38
64614;BME280;51025;37.772;-122.432;2022-07-23T07:15:54;100798.97;;;19.18;32.28
64614;BME280;51025;37.772;-122.432;2022-07-23T07:18:23;100797.37;;;18.95;32.48
64614;BME280;51025;37.772;-122.432;2022-07-23T07:20:51;100790.42;;;18.96;32.47
64614;BME280;51025;37.772;-122.432;2022-07-23T07:23:20;100777.33;;;19.19;32.23
64614;BME280;51025;37.772;-122.432;2022-07-23T07:25:48;100768.93;;;18.94;32.09
64614;BME280;51025;37.772;-122.432;2022-07-23T07:28:17;100773.30;;;19.10;32.29
64614;BME280;51025;37.772;-122.432;2022-07-23T07:30:46;100770.13;;;18.75;32.28
64614;BME280;51025;37.772;-122.432;2022-07-23T07:33:15;100773.13;;;19.33;32.07
64614;BME280;51025;37.772;-122.432;2022-07-23T07:35:43;100769.49;;;19.49;31.89
64614;BME280;51025;37.772;-122.432;2022-07-23T07:38:12;100770.32;;;18.97;32.37
64614;BME280;51025;37.772;-122.432;2022-07-23T07:40:40;100773.98;;;19.23;32.13
64614;BME280;51025;37.772;-122.432;2022-07-23T07:43:08;100778.97;;;19.00;32.34
64614;BME280;51025;37.772;-122.432;2022-07-23T07:45:37;100780.44;;;18.75;32.23
64614;BME280;51025;37.772;-122.432;2022-07-23T07:48:06;100784.99;;;19.11;32.21
64614;BME280;51025;37.772;-122.432;2022-07-23T07:50:34;100786.69;;;18.20;32.32
64614;BME280;51025;37.772;-122.432;2022-07-23T07:53:03;100791.07;;;18.98;32.32
64614;BME280;51025;37.772;-122.432;2022-07-23T07:55:31;100791.45;;;18.67;32.29
64614;BME280;51025;37.772;-122.432;2022-07-23T07:58:00;100794.19;;;19.05;32.21
64614;BME280;51025;37.772;-122.432;2022-07-23T08:00:29;100783.93;;;18.63;32.27
64614;BME280;51025;37.772;-122.432;2022-07-23T08:02:58;100779.51;;;18.59;32.31
64614;BME280;51025;37.772;-122.432;2022-07-23T08:05:28;100782.16;;;19.00;32.24
64614;BME280;51025;37.772;-122.432;2022-07-23T08:07:58;100778.85;;;19.21;32.38
64614;BME280;51025;37.772;-122.432;2022-07-23T08:10:28;100778.80;;;19.29;32.29
64614;BME280;51025;37.772;-122.432;2022-07-23T08:12:57;100777.43;;;19.00;32.20
64614;BME280;51025;37.772;-122.432;2022-07-23T08:15:28;100776.08;;;19.06;32.17
64614;BME280;51025;37.772;-122.432;2022-07-23T08:17:57;100770.97;;;19.06;32.11
64614;BME280;51025;37.772;-122.432;2022-07-23T08:20:27;100779.15;;;18.96;32.22
64614;BME280;51025;37.772;-122.432;2022-07-23T08:22:57;100778.02;;;18.92;32.22
64614;BME280;51025;37.772;-122.432;2022-07-23T08:25:28;100772.07;;;19.33;32.14
64614;BME280;51025;37.772;-122.432;2022-07-23T08:27:58;100774.64;;;18.82;32.30
64614;BME280;51025;37.772;-122.432;2022-07-23T08:30:29;100769.47;;;18.94;32.19
64614;BME280;51025;37.772;-122.432;2022-07-23T08:33:01;100769.55;;;18.86;32.25
64614;BME280;51025;37.772;-122.432;2022-07-23T08:35:31;100767.70;;;18.01;32.33
64614;BME280;51025;37.772;-122.432;2022-07-23T08:38:02;100762.61;;;18.78;32.30
64614;BME280;51025;37.772;-122.432;2022-07-23T08:40:33;100758.67;;;17.93;32.37
64614;BME280;51025;37.772;-122.432;2022-07-23T08:43:04;100759.82;;;18.89;32.17
64614;BME280;51025;37.772;-122.432;2022-07-23T08:45:37;100756.78;;;18.76;32.29
64614;BME280;51025;37.772;-122.432;2022-07-23T08:48:08;100759.95;;;19.77;32.05
64614;BME280;51025;37.772;-122.432;2022-07-23T08:50:43;100752.51;;;19.18;32.21
64614;BME280;51025;37.772;-122.432;2022-07-23T08:53:13;100752.60;;;18.86;32.17
64614;BME280;51025;37.772;-122.432;2022-07-23T08:55:44;100754.08;;;19.22;32.17
64614;BME280;51025;37.772;-122.432;2022-07-23T08:58:13;100760.89;;;19.28;32.08
64614;BME280;51025;37.772;-122.432;2022-07-23T09:00:42;100765.23;;;18.74;32.28
64614;BME280;51025;37.772;-122.432;2022-07-23T09:03:16;100765.85;;;19.18;32.16
64614;BME280;51025;37.772;-122.432;2022-07-23T09:05:45;100759.89;;;18.56;32.42
64614;BME280;51025;37.772;-122.432;2022-07-23T09:08:16;100767.65;;;18.98;32.35
64614;BME280;51025;37.772;-122.432;2022-07-23T09:10:49;100768.87;;;19.22;32.11
64614;BME280;51025;37.772;-122.432;2022-07-23T09:13:28;100768.88;;;19.09;32.22
64614;BME280;51025;37.772;-122.432;2022-07-23T09:15:58;100767.67;;;18.78;32.18
64614;BME280;51025;37.772;-122.432;2022-07-23T09:18:33;100773.89;;;18.80;32.15
64614;BME280;51025;37.772;-122.432;2022-07-23T09:21:12;100777.94;;;18.90;32.02
64614;BME280;51025;37.772;-122.432;2022-07-23T09:23:44;100783.27;;;18.89;32.05
64614;BME280;51025;37.772;-122.432;2022-07-23T09:26:30;100782.55;;;18.58;32.34
64614;BME280;51025;37.772;-122.432;2022-07-23T09:29:02;100777.26;;;18.74;32.16
64614;BME280;51025;37.772;-122.432;2022-07-23T09:31:41;100778.48;;;18.67;32.20
64614;BME280;51025;37.772;-122.432;2022-07-23T09:34:18;100775.96;;;19.04;32.21
64614;BME280;51025;37.772;-122.432;2022-07-23T09:36:47;100781.24;;;18.63;32.22
64614;BME280;51025;37.772;-122.432;2022-07-23T09:39:24;100788.81;;;19.64;32.00
64614;BME280;51025;37.772;-122.432;2022-07-23T09:41:53;100787.89;;;18.43;32.44
64614;BME280;51025;37.772;-122.432;2022-07-23T09:44:22;100788.93;;;18.87;32.34
64614;BME280;51025;37.772;-122.432;2022-07-23T09:46:57;100793.31;;;18.77;32.10
64614;BME280;51025;37.772;-122.432;2022-07-23T09:49:31;100796.89;;;18.82;32.01
64614;BME280;51025;37.772;-122.432;2022-07-23T09:52:00;100800.99;;;18.74;32.12
64614;BME280;51025;37.772;-122.432;2022-07-23T09:54:32;100798.82;;;17.82;32.24
64614;BME280;51025;37.772;-122.432;2022-07-23T09:57:04;100801.03;;;19.26;31.91
64614;BME280;51025;37.772;-122.432;2022-07-23T09:59:34;100799.22;;;18.33;32.08
64614;BME280;51025;37.772;-122.432;2022-07-23T10:02:04;100802.26;;;18.82;32.34
64614;BME280;51025;37.772;-122.432;2022-07-23T10:04:33;100796.80;;;18.12;32.33
64614;BME280;51025;37.772;-122.432;2022-07-23T10:07:05;100800.48;;;18.44;32.33
64614;BME280;51025;37.772;-122.432;2022-07-23T10:09:35;100800.11;;;18.46;32.30
64614;BME280;51025;37.772;-122.432;2022-07-23T10:12:08;100796.29;;;18.68;32.09
64614;BME280;51025;37.772;-122.432;2022-07-23T10:14:37;100793.65;;;18.70;32.03
64614;BME280;51025;37.772;-122.432;2022-07-23T10:17:07;100796.70;;;18.31;32.42
64614;BME280;51025;37.772;-122.432;2022-07-23T10:19:36;100797.56;;;18.31;32.42
64614;BME280;51025;37.772;-122.432;2022-07-23T10:22:08;100804.13;;;18.42;32.31
64614;BME280;51025;37.772;-122.432;2022-07-23T10:24:47;100801.80;;;18.76;32.34
64614;BME280;51025;37.772;-122.432;2022-07-23T10:27:37;100799.11;;;18.54;32.21
64614;BME280;51025;37.772;-122.432;2022-07-23T10:30:12;100797.77;;;18.70;32.35
64614;BME280;51025;37.772;-122.432;2022-07-23T10:32:53;100797.77;;;19.04;32.00
64614;BME280;51025;37.772;-122.432;2022-07-23T10:35:33;100805.78;;;18.76;32.29
64614;BME280;51025;37.772;-122.432;2022-07-23T10:38:13;100805.70;;;18.60;32.12
64614;BME280;51025;37.772;-122.432;2022-07-23T10:40:55;100803.11;;;18.92;32.09
64614;BME280;51025;37.772;-122.432;2022-07-23T10:43:26;100794.96;;;19.02;31.97
64614;BME280;51025;37.772;-122.432;2022-07-23T10:45:55;100793.48;;;18.29;32.34
64614;BME280;51025;37.772;-122.432;2022-07-23T10:48:25;100793.44;;;18.77;32.26
64614;BME280;51025;37.772;-122.432;2022-07-23T10:51:11;100794.52;;;18.88;32.12
64614;BME280;51025;37.772;-122.432;2022-07-23T10:53:57;100796.79;;;18.36;32.30
64614;BME280;51025;37.772;-122.432;2022-07-23T10:57:31;100799.05;;;18.72;32.27
64614;BME280;51025;37.772;-122.432;2022-07-23T11:00:21;100796.68;;;18.66;32.32
64614;BME280;51025;37.772;-122.432;2022-07-23T11:02:53;100795.17;;;18.11;32.48
64614;BME280;51025;37.772;-122.432;2022-07-23T11:05:26;100787.36;;;18.73;32.22
64614;BME280;51025;37.772;-122.432;2022-07-23T11:08:17;100789.42;;;18.20;32.35
64614;BME280;51025;37.772;-122.432;2022-07-23T11:10:48;100792.55;;;18.83;32.10
64614;BME280;51025;37.772;-122.432;2022-07-23T11:13:49;100794.79;;;18.67;32.24
64614;BME280;51025;37.772;-122.432;2022-07-23T11:16:21;100788.74;;;18.08;32.47
64614;BME280;51025;37.772;-122.432;2022-07-23T11:19:02;100789.84;;;18.48;32.43
64614;BME280;51025;37.772;-122.432;2022-07-23T11:22:03;100790.57;;;18.19;32.37
64614;BME280;51025;37.772;-122.432;2022-07-23T11:24:50;100782.69;;;18.23;32.29
64614;BME280;51025;37.772;-122.432;2022-07-23T11:27:37;100782.87;;;18.45;32.44
64614;BME280;51025;37.772;-122.432;2022-07-23T11:30:08;100782.59;;;18.34;32.52
64614;BME280;51025;37.772;-122.432;2022-07-23T11:32:39;100785.90;;;18.46;32.37
64614;BME280;51025;37.772;-122.432;2022-07-23T11:35:26;100783.25;;;18.91;32.34
64614;BME280;51025;37.772;-122.432;2022-07-23T11:38:02;100787.15;;;18.93;32.33
64614;BME280;51025;37.772;-122.432;2022-07-23T11:40:31;100786.40;;;18.16;32.30
64614;BME280;51025;37.772;-122.432;2022-07-23T11:43:02;100783.68;;;18.46;32.38
64614;BME280;51025;37.772;-122.432;2022-07-23T11:45:34;100778.49;;;17.92;32.55
64614;BME280;51025;37.772;-122.432;2022-07-23T11:48:04;100781.33;;;19.14;32.09
64614;BME280;51025;37.772;-122.432;2022-07-23T11:50:34;100779.52;;;17.99;32.46
64614;BME280;51025;37.772;-122.432;2022-07-23T11:53:03;100784.09;;;18.98;32.22
64614;BME280;51025;37.772;-122.432;2022-07-23T11:55:32;100790.27;;;17.93;32.52
64614;BME280;51025;37.772;-122.432;2022-07-23T11:58:02;100786.49;;;18.80;32.43
64614;BME280;51025;37.772;-122.432;2022-07-23T12:00:31;100778.25;;;17.69;32.77
64614;BME280;51025;37.772;-122.432;2022-07-23T12:03:01;100777.23;;;18.54;32.68
64614;BME280;51025;37.772;-122.432;2022-07-23T12:05:34;100783.83;;;18.32;32.18
64614;BME280;51025;37.772;-122.432;2022-07-23T12:08:04;100782.27;;;18.40;32.37
64614;BME280;51025;37.772;-122.432;2022-07-23T12:10:36;100784.62;;;17.81;32.26
64614;BME280;51025;37.772;-122.432;2022-07-23T12:13:08;100779.57;;;18.49;32.30
64614;BME280;51025;37.772;-122.432;2022-07-23T12:15:39;100785.14;;;17.94;32.50
64614;BME280;51025;37.772;-122.432;2022-07-23T12:18:10;100780.11;;;18.52;32.23
64614;BME280;51025;37.772;-122.432;2022-07-23T12:20:40;100783.19;;;18.16;32.57
64614;BME280;51025;37.772;-122.432;2022-07-23T12:23:10;100782.58;;;18.38;32.34
64614;BME280;51025;37.772;-122.432;2022-07-23T12:25:42;100791.65;;;17.82;32.51
64614;BME280;51025;37.772;-122.432;2022-07-23T12:28:12;100793.79;;;18.57;32.56
64614;BME280;51025;37.772;-122.432;2022-07-23T12:30:42;100793.08;;;18.08;32.64
64614;BME280;51025;37.772;-122.432;2022-07-23T12:33:13;100792.47;;;18.65;32.49
64614;BME280;51025;37.772;-122.432;2022-07-23T12:35:43;100794.01;;;17.82;32.52
64614;BME280;51025;37.772;-122.432;2022-07-23T12:38:14;100795.40;;;18.51;32.19